LSZH/ZRH METAR and TAF weather

Enter ICAO airport designator
Station Type Date Time Source
LSZH METAR 2019/06/17 05:20 UTC NOAA

LSZH 170520Z 30004KT 9999 FEW014 14/12 Q1021 NOSIG


Station Type Date Time Source
LSZH Decoded METAR 2019/06/17 05:20 UTC NOAA

Zurich-Kloten, Switzerland (LSZH) 47-29N 008-32E 432M
Jun 17, 2019 - 01:20 AM EDT / 2019.06.17 0520 UTC
Wind: from the WNW (300 degrees) at 5 MPH (4 KT):0
Visibility: greater than 7 mile(s):0
Sky conditions: mostly clear
Temperature: 57 F (14 C)
Dew Point: 53 F (12 C)
Relative Humidity: 87%
Pressure (altimeter): 30.15 in. Hg (1021 hPa)
ob: LSZH 170520Z 30004KT 9999 FEW014 14/12 Q1021 NOSIG
cycle: 5

Station Type Date Time Source
LSZH TAF 2019/06/17 03:40 UTC NOAA

TAF LSZH 170225Z 1703/1809 33005KT CAVOK TX26/1715Z TN10/1704Z TN12/1804Z PROB40 1704/1708 4000 BR BKN010
BECMG 1707/1710 05008KT
BECMG 1716/1719 VRB03KT CAVOK
BECMG 1803/1805 4000 MIFG NSC
BECMG 1806/1808 CAVOK

Example: see airport list